sensor_id;sensor_type;location;lat;lon;timestamp;pressure;altitude;pressure_sealevel;temperature;humidity
25722;BME280;13578;53.450;15.496;2023-02-23T00:01:41;99895.84;;;-0.77;100.00
25722;BME280;13578;53.450;15.496;2023-02-23T00:04:41;99904.44;;;-0.68;100.00
25722;BME280;13578;53.450;15.496;2023-02-23T00:07:43;99893.03;;;-0.74;100.00
25722;BME280;13578;53.450;15.496;2023-02-23T00:10:44;99893.03;;;-0.74;100.00
25722;BME280;13578;53.450;15.496;2023-02-23T00:13:46;99890.56;;;-0.81;100.00
25722;BME280;13578;53.450;15.496;2023-02-23T00:16:49;99891.28;;;-0.75;100.00
25722;BME280;13578;53.450;15.496;2023-02-23T00:19:49;99879.13;;;-0.86;100.00
25722;BME280;13578;53.450;15.496;2023-02-23T00:22:55;99881.81;;;-0.86;100.00
25722;BME280;13578;53.450;15.496;2023-02-23T00:25:55;99878.25;;;-0.86;100.00
25722;BME280;13578;53.450;15.496;2023-02-23T00:28:58;99877.78;;;-0.96;100.00
25722;BME280;13578;53.450;15.496;2023-02-23T00:31:59;99865.72;;;-0.87;100.00
25722;BME280;13578;53.450;15.496;2023-02-23T00:35:00;99876.25;;;-0.81;100.00
25722;BME280;13578;53.450;15.496;2023-02-23T00:38:01;99875.50;;;-0.85;100.00
25722;BME280;13578;53.450;15.496;2023-02-23T00:41:04;99863.09;;;-0.89;100.00
25722;BME280;13578;53.450;15.496;2023-02-23T00:44:05;99859.66;;;-0.92;100.00
25722;BME280;13578;53.450;15.496;2023-02-23T00:47:06;99864.91;;;-0.89;100.00
25722;BME280;13578;53.450;15.496;2023-02-23T00:50:14;99857.75;;;-0.90;100.00
25722;BME280;13578;53.450;15.496;2023-02-23T00:53:15;99849.00;;;-0.96;100.00
25722;BME280;13578;53.450;15.496;2023-02-23T00:56:16;99854.03;;;-0.88;100.00
25722;BME280;13578;53.450;15.496;2023-02-23T00:59:17;99856.75;;;-0.88;100.00
25722;BME280;13578;53.450;15.496;2023-02-23T01:02:18;99848.66;;;-0.88;100.00
25722;BME280;13578;53.450;15.496;2023-02-23T01:05:19;99846.13;;;-0.91;100.00
25722;BME280;13578;53.450;15.496;2023-02-23T01:08:21;99846.19;;;-0.92;100.00
25722;BME280;13578;53.450;15.496;2023-02-23T01:11:24;99832.00;;;-0.98;100.00
25722;BME280;13578;53.450;15.496;2023-02-23T01:14:28;99840.38;;;-0.83;100.00
25722;BME280;13578;53.450;15.496;2023-02-23T01:17:28;99835.19;;;-0.88;100.00
25722;BME280;13578;53.450;15.496;2023-02-23T01:20:29;99845.97;;;-0.88;100.00
25722;BME280;13578;53.450;15.496;2023-02-23T01:23:31;99831.75;;;-0.91;100.00
25722;BME280;13578;53.450;15.496;2023-02-23T01:26:33;99822.88;;;-0.93;100.00
25722;BME280;13578;53.450;15.496;2023-02-23T01:29:34;99825.97;;;-0.82;100.00
25722;BME280;13578;53.450;15.496;2023-02-23T01:32:36;99827.72;;;-0.81;100.00
25722;BME280;13578;53.450;15.496;2023-02-23T01:35:37;99823.34;;;-0.84;100.00
25722;BME280;13578;53.450;15.496;2023-02-23T01:38:38;99815.19;;;-0.82;100.00
25722;BME280;13578;53.450;15.496;2023-02-23T01:41:39;99814.81;;;-0.95;100.00
25722;BME280;13578;53.450;15.496;2023-02-23T01:47:42;99803.66;;;-0.86;100.00
25722;BME280;13578;53.450;15.496;2023-02-23T01:54:06;99792.16;;;-0.89;100.00
25722;BME280;13578;53.450;15.496;2023-02-23T01:57:11;99782.38;;;-0.92;100.00
25722;BME280;13578;53.450;15.496;2023-02-23T02:00:14;99772.06;;;-0.82;100.00
25722;BME280;13578;53.450;15.496;2023-02-23T02:03:19;99771.41;;;-0.87;100.00
25722;BME280;13578;53.450;15.496;2023-02-23T02:06:25;99767.81;;;-0.88;100.00
25722;BME280;13578;53.450;15.496;2023-02-23T02:09:28;99758.06;;;-0.90;100.00
25722;BME280;13578;53.450;15.496;2023-02-23T02:12:43;99763.41;;;-0.89;100.00
25722;BME280;13578;53.450;15.496;2023-02-23T02:16:04;99744.31;;;-0.84;100.00
25722;BME280;13578;53.450;15.496;2023-02-23T02:19:46;99760.28;;;-0.80;100.00
25722;BME280;13578;53.450;15.496;2023-02-23T02:43:39;99725.66;;;-0.68;100.00
25722;BME280;13578;53.450;15.496;2023-02-23T02:46:47;99720.19;;;-0.67;100.00
25722;BME280;13578;53.450;15.496;2023-02-23T02:50:14;99727.72;;;-0.54;100.00
25722;BME280;13578;53.450;15.496;2023-02-23T02:53:38;99725.38;;;-0.62;100.00
25722;BME280;13578;53.450;15.496;2023-02-23T02:56:43;99709.19;;;-0.62;100.00
25722;BME280;13578;53.450;15.496;2023-02-23T02:59:46;99720.72;;;-0.58;100.00
25722;BME280;13578;53.450;15.496;2023-02-23T03:03:05;99700.75;;;-0.54;100.00
25722;BME280;13578;53.450;15.496;2023-02-23T03:07:38;99699.22;;;-0.60;100.00
25722;BME280;13578;53.450;15.496;2023-02-23T03:10:39;99693.75;;;-0.58;100.00
25722;BME280;13578;53.450;15.496;2023-02-23T03:17:41;99688.91;;;-0.50;100.00
25722;BME280;13578;53.450;15.496;2023-02-23T03:21:07;99686.50;;;-0.56;100.00
25722;BME280;13578;53.450;15.496;2023-02-23T03:24:57;99678.19;;;-0.52;100.00
25722;BME280;13578;53.450;15.496;2023-02-23T03:28:29;99686.63;;;-0.40;100.00
25722;BME280;13578;53.450;15.496;2023-02-23T03:32:23;99678.75;;;-0.45;100.00
25722;BME280;13578;53.450;15.496;2023-02-23T03:39:28;99679.41;;;-0.40;100.00
25722;BME280;13578;53.450;15.496;2023-02-23T03:42:52;99675.13;;;-0.44;100.00
25722;BME280;13578;53.450;15.496;2023-02-23T03:46:17;99676.66;;;-0.38;100.00
25722;BME280;13578;53.450;15.496;2023-02-23T03:49:38;99674.91;;;-0.39;100.00
25722;BME280;13578;53.450;15.496;2023-02-23T03:52:59;99664.03;;;-0.38;100.00
25722;BME280;13578;53.450;15.496;2023-02-23T03:56:23;99659.47;;;-0.36;100.00
25722;BME280;13578;53.450;15.496;2023-02-23T03:59:58;99668.63;;;-0.40;100.00
25722;BME280;13578;53.450;15.496;2023-02-23T04:03:19;99662.25;;;-0.37;100.00
25722;BME280;13578;53.450;15.496;2023-02-23T04:06:42;99661.94;;;-0.31;100.00
25722;BME280;13578;53.450;15.496;2023-02-23T04:10:03;99657.84;;;-0.40;100.00
25722;BME280;13578;53.450;15.496;2023-02-23T04:13:25;99667.38;;;-0.33;100.00
25722;BME280;13578;53.450;15.496;2023-02-23T04:16:29;99659.69;;;-0.40;100.00
25722;BME280;13578;53.450;15.496;2023-02-23T04:19:31;99658.56;;;-0.36;100.00
25722;BME280;13578;53.450;15.496;2023-02-23T04:22:32;99660.09;;;-0.30;100.00
25722;BME280;13578;53.450;15.496;2023-02-23T04:25:35;99647.53;;;-0.30;100.00
25722;BME280;13578;53.450;15.496;2023-02-23T04:28:35;99651.00;;;-0.28;100.00
25722;BME280;13578;53.450;15.496;2023-02-23T04:31:36;99635.09;;;-0.34;100.00
25722;BME280;13578;53.450;15.496;2023-02-23T04:34:36;99636.06;;;-0.35;100.00
25722;BME280;13578;53.450;15.496;2023-02-23T04:37:37;99637.97;;;-0.37;100.00
25722;BME280;13578;53.450;15.496;2023-02-23T04:40:38;99647.53;;;-0.30;100.00
25722;BME280;13578;53.450;15.496;2023-02-23T04:43:38;99647.28;;;-0.25;100.00
25722;BME280;13578;53.450;15.496;2023-02-23T04:46:39;99630.16;;;-0.43;100.00
25722;BME280;13578;53.450;15.496;2023-02-23T04:49:39;99649.84;;;-0.41;100.00
25722;BME280;13578;53.450;15.496;2023-02-23T04:52:40;99639.78;;;-0.38;100.00
25722;BME280;13578;53.450;15.496;2023-02-23T04:55:41;99633.34;;;-0.35;100.00
25722;BME280;13578;53.450;15.496;2023-02-23T04:58:42;99629.06;;;-0.39;100.00
25722;BME280;13578;53.450;15.496;2023-02-23T05:01:43;99625.94;;;-0.30;100.00
25722;BME280;13578;53.450;15.496;2023-02-23T05:04:43;99626.22;;;-0.36;100.00
25722;BME280;13578;53.450;15.496;2023-02-23T05:07:44;99627.97;;;-0.35;100.00
25722;BME280;13578;53.450;15.496;2023-02-23T05:10:45;99616.53;;;-0.40;100.00
25722;BME280;13578;53.450;15.496;2023-02-23T05:13:45;99615.00;;;-0.46;100.00
25722;BME280;13578;53.450;15.496;2023-02-23T05:16:46;99605.31;;;-0.50;100.00
25722;BME280;13578;53.450;15.496;2023-02-23T05:19:47;99604.59;;;-0.54;100.00
25722;BME280;13578;53.450;15.496;2023-02-23T05:22:47;99609.38;;;-0.60;100.00
25722;BME280;13578;53.450;15.496;2023-02-23T05:25:48;99611.53;;;-0.48;100.00
25722;BME280;13578;53.450;15.496;2023-02-23T05:28:49;99610.63;;;-0.49;100.00
25722;BME280;13578;53.450;15.496;2023-02-23T05:31:49;99599.63;;;-0.63;100.00
25722;BME280;13578;53.450;15.496;2023-02-23T05:34:50;99608.31;;;-0.56;100.00
25722;BME280;13578;53.450;15.496;2023-02-23T05:37:50;99601.06;;;-0.56;100.00
25722;BME280;13578;53.450;15.496;2023-02-23T05:40:51;99603.78;;;-0.56;100.00
25722;BME280;13578;53.450;15.496;2023-02-23T05:43:53;99606.84;;;-0.63;100.00
25722;BME280;13578;53.450;15.496;2023-02-23T05:46:54;99608.44;;;-0.59;100.00
25722;BME280;13578;53.450;15.496;2023-02-23T05:49:54;99595.25;;;-0.66;100.00
25722;BME280;13578;53.450;15.496;2023-02-23T05:52:55;99590.88;;;-0.68;100.00
25722;BME280;13578;53.450;15.496;2023-02-23T05:55:56;99582.13;;;-0.73;100.00
25722;BME280;13578;53.450;15.496;2023-02-23T05:58:57;99602.31;;;-0.63;100.00
25722;BME280;13578;53.450;15.496;2023-02-23T06:01:58;99597.22;;;-0.69;100.00
25722;BME280;13578;53.450;15.496;2023-02-23T06:04:58;99593.78;;;-0.73;100.00
25722;BME280;13578;53.450;15.496;2023-02-23T06:07:59;99600.66;;;-0.66;100.00
25722;BME280;13578;53.450;15.496;2023-02-23T06:11:00;99600.66;;;-0.66;100.00
25722;BME280;13578;53.450;15.496;2023-02-23T06:14:00;99606.03;;;-0.66;100.00
25722;BME280;13578;53.450;15.496;2023-02-23T06:17:01;99600.66;;;-0.66;100.00
25722;BME280;13578;53.450;15.496;2023-02-23T06:20:03;99606.03;;;-0.66;100.00
25722;BME280;13578;53.450;15.496;2023-02-23T06:23:04;99593.88;;;-0.74;100.00
25722;BME280;13578;53.450;15.496;2023-02-23T06:26:05;99595.88;;;-0.80;100.00
25722;BME280;13578;53.450;15.496;2023-02-23T06:29:07;99599.19;;;-0.73;100.00
25722;BME280;13578;53.450;15.496;2023-02-23T06:32:07;99594.72;;;-0.74;100.00
25722;BME280;13578;53.450;15.496;2023-02-23T06:35:08;99607.19;;;-0.71;100.00
25722;BME280;13578;53.450;15.496;2023-02-23T06:38:08;99611.50;;;-0.67;100.00
25722;BME280;13578;53.450;15.496;2023-02-23T06:41:10;99606.16;;;-0.69;100.00
25722;BME280;13578;53.450;15.496;2023-02-23T06:44:10;99608.88;;;-0.69;100.00
25722;BME280;13578;53.450;15.496;2023-02-23T06:47:11;99615.19;;;-0.70;100.00
25722;BME280;13578;53.450;15.496;2023-02-23T06:50:12;99609.66;;;-0.67;100.00
25722;BME280;13578;53.450;15.496;2023-02-23T06:53:13;99610.47;;;-0.65;100.00
25722;BME280;13578;53.450;15.496;2023-02-23T06:56:14;99615.78;;;-0.63;100.00
25722;BME280;13578;53.450;15.496;2023-02-23T06:59:15;99613.03;;;-0.61;100.00
25722;BME280;13578;53.450;15.496;2023-02-23T07:02:16;99613.63;;;-0.55;100.00
25722;BME280;13578;53.450;15.496;2023-02-23T07:05:17;99601.97;;;-0.55;100.00
25722;BME280;13578;53.450;15.496;2023-02-23T07:08:17;99626.50;;;-0.42;100.00
25722;BME280;13578;53.450;15.496;2023-02-23T07:11:18;99607.78;;;-0.45;100.00
25722;BME280;13578;53.450;15.496;2023-02-23T07:14:19;99613.91;;;-0.42;100.00
25722;BME280;13578;53.450;15.496;2023-02-23T07:17:19;99607.31;;;-0.36;100.00
25722;BME280;13578;53.450;15.496;2023-02-23T07:20:21;99610.41;;;-0.25;100.00
25722;BME280;13578;53.450;15.496;2023-02-23T07:23:23;99606.81;;;-0.25;100.00
25722;BME280;13578;53.450;15.496;2023-02-23T07:26:24;99603.03;;;-0.21;100.00
25722;BME280;13578;53.450;15.496;2023-02-23T07:29:25;99604.56;;;-0.15;100.00
25722;BME280;13578;53.450;15.496;2023-02-23T07:32:28;99608.75;;;-0.10;100.00
25722;BME280;13578;53.450;15.496;2023-02-23T07:35:28;99600.38;;;-0.04;100.00
25722;BME280;13578;53.450;15.496;2023-02-23T07:38:30;99586.72;;;-0.01;100.00
25722;BME280;13578;53.450;15.496;2023-02-23T07:41:31;99588.41;;;0.02;100.00
25722;BME280;13578;53.450;15.496;2023-02-23T07:44:31;99589.19;;;0.04;100.00
25722;BME280;13578;53.450;15.496;2023-02-23T07:47:32;99585.97;;;0.15;100.00
25722;BME280;13578;53.450;15.496;2023-02-23T07:50:34;99588.34;;;0.21;100.00
25722;BME280;13578;53.450;15.496;2023-02-23T07:53:34;99588.84;;;0.29;100.00
25722;BME280;13578;53.450;15.496;2023-02-23T07:56:35;99581.88;;;0.25;100.00
25722;BME280;13578;53.450;15.496;2023-02-23T07:59:36;99573.97;;;0.38;100.00
25722;BME280;13578;53.450;15.496;2023-02-23T08:02:38;99578.81;;;0.49;100.00
25722;BME280;13578;53.450;15.496;2023-02-23T08:05:38;99570.41;;;0.55;100.00
25722;BME280;13578;53.450;15.496;2023-02-23T08:08:40;99574.00;;;0.56;100.00
25722;BME280;13578;53.450;15.496;2023-02-23T08:11:44;99565.22;;;0.68;100.00
25722;BME280;13578;53.450;15.496;2023-02-23T08:14:45;99563.81;;;0.78;100.00
25722;BME280;13578;53.450;15.496;2023-02-23T08:17:47;99556.50;;;0.81;100.00
25722;BME280;13578;53.450;15.496;2023-02-23T08:21:00;99556.69;;;0.93;100.00
25722;BME280;13578;53.450;15.496;2023-02-23T08:24:01;99551.84;;;1.00;100.00
25722;BME280;13578;53.450;15.496;2023-02-23T08:27:03;99556.41;;;1.16;100.00
25722;BME280;13578;53.450;15.496;2023-02-23T08:30:10;99559.72;;;1.21;100.00
25722;BME280;13578;53.450;15.496;2023-02-23T08:33:11;99558.16;;;1.33;100.00
25722;BME280;13578;53.450;15.496;2023-02-23T08:36:12;99554.50;;;1.34;100.00
25722;BME280;13578;53.450;15.496;2023-02-23T08:39:14;99551.00;;;1.48;100.00
25722;BME280;13578;53.450;15.496;2023-02-23T08:42:19;99549.09;;;1.50;100.00
25722;BME280;13578;53.450;15.496;2023-02-23T08:45:20;99530.75;;;1.55;100.00
25722;BME280;13578;53.450;15.496;2023-02-23T08:48:21;99523.44;;;1.57;100.00
25722;BME280;13578;53.450;15.496;2023-02-23T08:51:24;99537.94;;;1.72;100.00
25722;BME280;13578;53.450;15.496;2023-02-23T08:54:25;99533.38;;;1.72;100.00
25722;BME280;13578;53.450;15.496;2023-02-23T08:57:26;99530.22;;;1.80;100.00
25722;BME280;13578;53.450;15.496;2023-02-23T09:00:28;99521.66;;;1.88;100.00
25722;BME280;13578;53.450;15.496;2023-02-23T09:03:31;99533.88;;;1.95;100.00
25722;BME280;13578;53.450;15.496;2023-02-23T09:06:36;99534.31;;;2.03;100.00
25722;BME280;13578;53.450;15.496;2023-02-23T09:09:38;99518.56;;;2.10;100.00
25722;BME280;13578;53.450;15.496;2023-02-23T09:12:39;99519.88;;;2.19;100.00
25722;BME280;13578;53.450;15.496;2023-02-23T09:15:43;99524.25;;;2.36;100.00
25722;BME280;13578;53.450;15.496;2023-02-23T09:18:44;99531.16;;;2.42;100.00
25722;BME280;13578;53.450;15.496;2023-02-23T09:21:45;99521.31;;;2.55;100.00
25722;BME280;13578;53.450;15.496;2023-02-23T09:24:46;99522.84;;;2.59;100.00
25722;BME280;13578;53.450;15.496;2023-02-23T09:27:48;99521.50;;;2.66;100.00
25722;BME280;13578;53.450;15.496;2023-02-23T09:30:50;99509.91;;;2.64;100.00
25722;BME280;13578;53.450;15.496;2023-02-23T09:33:52;99514.56;;;2.77;100.00
25722;BME280;13578;53.450;15.496;2023-02-23T09:36:54;99512.25;;;2.85;100.00
25722;BME280;13578;53.450;15.496;2023-02-23T09:39:54;99511.63;;;2.94;100.00
25722;BME280;13578;53.450;15.496;2023-02-23T09:46:26;99510.47;;;3.13;100.00
25722;BME280;13578;53.450;15.496;2023-02-23T09:49:32;99506.88;;;3.27;100.00
25722;BME280;13578;53.450;15.496;2023-02-23T09:52:44;99504.63;;;3.48;100.00
25722;BME280;13578;53.450;15.496;2023-02-23T09:55:47;99510.00;;;3.62;100.00
25722;BME280;13578;53.450;15.496;2023-02-23T09:58:49;99506.13;;;3.67;100.00
25722;BME280;13578;53.450;15.496;2023-02-23T10:05:15;99504.78;;;3.87;100.00
25722;BME280;13578;53.450;15.496;2023-02-23T10:08:21;99506.34;;;3.91;100.00
25722;BME280;13578;53.450;15.496;2023-02-23T10:11:31;99516.59;;;4.13;100.00
25722;BME280;13578;53.450;15.496;2023-02-23T10:14:57;99510.47;;;4.37;100.00
25722;BME280;13578;53.450;15.496;2023-02-23T10:18:35;99498.00;;;4.60;100.00
25722;BME280;13578;53.450;15.496;2023-02-23T10:21:39;99500.28;;;4.53;100.00
25722;BME280;13578;53.450;15.496;2023-02-23T10:25:12;99498.09;;;4.58;100.00
25722;BME280;13578;53.450;15.496;2023-02-23T10:28:15;99500.31;;;4.66;100.00
25722;BME280;13578;53.450;15.496;2023-02-23T10:34:28;99476.47;;;4.83;100.00
25722;BME280;13578;53.450;15.496;2023-02-23T10:37:31;99472.88;;;4.82;100.00
25722;BME280;13578;53.450;15.496;2023-02-23T10:40:35;99475.16;;;4.75;100.00
25722;BME280;13578;53.450;15.496;2023-02-23T10:43:36;99473.84;;;4.81;100.00
25722;BME280;13578;53.450;15.496;2023-02-23T10:46:39;99469.59;;;4.90;100.00
25722;BME280;13578;53.450;15.496;2023-02-23T10:49:45;99466.78;;;4.91;100.00
25722;BME280;13578;53.450;15.496;2023-02-23T10:52:47;99467.31;;;4.97;100.00
25722;BME280;13578;53.450;15.496;2023-02-23T10:56:08;99471.66;;;5.12;100.00
25722;BME280;13578;53.450;15.496;2023-02-23T10:59:18;99456.84;;;5.16;100.00
25722;BME280;13578;53.450;15.496;2023-02-23T11:02:25;99453.47;;;5.13;100.00
25722;BME280;13578;53.450;15.496;2023-02-23T11:05:52;99464.16;;;5.16;100.00
25722;BME280;13578;53.450;15.496;2023-02-23T11:08:54;99466.47;;;5.33;100.00
25722;BME280;13578;53.450;15.496;2023-02-23T11:11:58;99457.25;;;5.36;100.00
25722;BME280;13578;53.450;15.496;2023-02-23T11:15:34;99453.47;;;5.50;100.00
25722;BME280;13578;53.450;15.496;2023-02-23T11:18:52;99447.81;;;5.53;100.00
25722;BME280;13578;53.450;15.496;2023-02-23T11:21:54;99446.41;;;5.71;100.00
25722;BME280;13578;53.450;15.496;2023-02-23T11:24:54;99450.53;;;5.77;100.00
25722;BME280;13578;53.450;15.496;2023-02-23T11:27:56;99441.56;;;5.88;100.00
25722;BME280;13578;53.450;15.496;2023-02-23T11:31:03;99423.63;;;5.97;100.00
25722;BME280;13578;53.450;15.496;2023-02-23T11:34:21;99423.81;;;6.07;100.00
25722;BME280;13578;53.450;15.496;2023-02-23T11:37:23;99423.22;;;6.14;100.00
25722;BME280;13578;53.450;15.496;2023-02-23T11:40:31;99418.41;;;6.18;100.00
25722;BME280;13578;53.450;15.496;2023-02-23T11:43:34;99420.88;;;6.21;100.00
25722;BME280;13578;53.450;15.496;2023-02-23T11:46:36;99420.53;;;6.26;100.00
25722;BME280;13578;53.450;15.496;2023-02-23T11:49:38;99422.31;;;6.38;100.00
25722;BME280;13578;53.450;15.496;2023-02-23T11:52:42;99406.41;;;6.32;100.00
25722;BME280;13578;53.450;15.496;2023-02-23T11:55:48;99405.19;;;6.36;100.00
25722;BME280;13578;53.450;15.496;2023-02-23T11:58:52;99400.72;;;6.35;100.00
25722;BME280;13578;53.450;15.496;2023-02-23T12:01:59;99402.97;;;6.30;100.00
25722;BME280;13578;53.450;15.496;2023-02-23T12:05:20;99401.22;;;6.29;100.00
25722;BME280;13578;53.450;15.496;2023-02-23T12:08:47;99390.53;;;6.14;100.00
25722;BME280;13578;53.450;15.496;2023-02-23T12:12:03;99378.66;;;6.15;100.00
25722;BME280;13578;53.450;15.496;2023-02-23T12:15:57;99399.41;;;6.05;100.00
25722;BME280;13578;53.450;15.496;2023-02-23T12:22:28;99380.84;;;5.99;100.00
25722;BME280;13578;53.450;15.496;2023-02-23T12:28:53;99370.47;;;5.91;100.00
25722;BME280;13578;53.450;15.496;2023-02-23T12:32:28;99376.50;;;6.08;100.00
25722;BME280;13578;53.450;15.496;2023-02-23T12:38:48;99378.16;;;6.22;100.00
25722;BME280;13578;53.450;15.496;2023-02-23T12:45:23;99355.38;;;6.23;100.00
25722;BME280;13578;53.450;15.496;2023-02-23T12:55:02;99349.81;;;6.47;100.00
25722;BME280;13578;53.450;15.496;2023-02-23T13:13:07;99328.63;;;6.39;100.00
25722;BME280;13578;53.450;15.496;2023-02-23T13:29:43;99296.66;;;6.41;100.00
25722;BME280;13578;53.450;15.496;2023-02-23T13:32:46;99298.91;;;6.59;100.00
25722;BME280;13578;53.450;15.496;2023-02-23T13:35:55;99301.38;;;6.50;100.00
25722;BME280;13578;53.450;15.496;2023-02-23T13:42:23;99304.84;;;6.41;100.00
25722;BME280;13578;53.450;15.496;2023-02-23T13:49:41;99304.59;;;6.33;100.00
25722;BME280;13578;53.450;15.496;2023-02-23T13:52:44;99311.28;;;6.29;100.00
25722;BME280;13578;53.450;15.496;2023-02-23T13:55:48;99304.47;;;6.23;100.00
25722;BME280;13578;53.450;15.496;2023-02-23T13:59:01;99306.31;;;6.11;100.00
25722;BME280;13578;53.450;15.496;2023-02-23T14:05:42;99318.31;;;6.09;100.00
25722;BME280;13578;53.450;15.496;2023-02-23T14:08:50;99311.94;;;5.85;100.00
25722;BME280;13578;53.450;15.496;2023-02-23T14:12:04;99326.88;;;5.80;100.00
25722;BME280;13578;53.450;15.496;2023-02-23T14:18:29;99307.75;;;5.93;100.00
25722;BME280;13578;53.450;15.496;2023-02-23T14:21:48;99314.53;;;5.87;100.00
25722;BME280;13578;53.450;15.496;2023-02-23T14:31:34;99295.19;;;5.79;100.00
25722;BME280;13578;53.450;15.496;2023-02-23T14:35:01;99284.81;;;5.84;100.00
25722;BME280;13578;53.450;15.496;2023-02-23T14:38:32;99291.13;;;5.96;100.00
25722;BME280;13578;53.450;15.496;2023-02-23T14:44:46;99282.28;;;5.69;100.00
25722;BME280;13578;53.450;15.496;2023-02-23T14:47:50;99283.19;;;5.81;100.00
25722;BME280;13578;53.450;15.496;2023-02-23T14:51:09;99289.53;;;5.82;100.00
25722;BME280;13578;53.450;15.496;2023-02-23T14:54:38;99288.63;;;5.70;100.00
25722;BME280;13578;53.450;15.496;2023-02-23T14:57:41;99280.94;;;5.64;100.00
25722;BME280;13578;53.450;15.496;2023-02-23T15:00:42;99278.72;;;5.69;100.00
25722;BME280;13578;53.450;15.496;2023-02-23T15:04:13;99267.91;;;5.56;100.00
25722;BME280;13578;53.450;15.496;2023-02-23T15:10:42;99266.81;;;5.59;100.00
25722;BME280;13578;53.450;15.496;2023-02-23T15:13:46;99266.44;;;5.52;100.00
25722;BME280;13578;53.450;15.496;2023-02-23T15:16:48;99263.72;;;5.52;100.00
25722;BME280;13578;53.450;15.496;2023-02-23T15:19:54;99260.22;;;5.50;100.00
25722;BME280;13578;53.450;15.496;2023-02-23T15:22:56;99265.31;;;5.54;100.00
25722;BME280;13578;53.450;15.496;2023-02-23T15:25:58;99265.81;;;5.48;100.00
25722;BME280;13578;53.450;15.496;2023-02-23T15:29:15;99252.94;;;5.50;100.00
25722;BME280;13578;53.450;15.496;2023-02-23T15:32:21;99263.19;;;5.47;100.00
25722;BME280;13578;53.450;15.496;2023-02-23T15:35:23;99254.91;;;5.48;100.00
25722;BME280;13578;53.450;15.496;2023-02-23T15:38:30;99252.66;;;5.42;100.00
25722;BME280;13578;53.450;15.496;2023-02-23T15:41:35;99252.13;;;5.37;100.00
25722;BME280;13578;53.450;15.496;2023-02-23T15:44:37;99252.53;;;5.44;100.00
25722;BME280;13578;53.450;15.496;2023-02-23T15:47:38;99246.69;;;5.37;100.00
25722;BME280;13578;53.450;15.496;2023-02-23T15:50:41;99244.72;;;5.39;100.00
25722;BME280;13578;53.450;15.496;2023-02-23T15:53:42;99245.72;;;5.38;100.00
25722;BME280;13578;53.450;15.496;2023-02-23T15:56:47;99246.81;;;5.35;100.00
25722;BME280;13578;53.450;15.496;2023-02-23T15:59:49;99240.28;;;5.38;100.00
25722;BME280;13578;53.450;15.496;2023-02-23T16:02:50;99235.81;;;5.37;100.00
25722;BME280;13578;53.450;15.496;2023-02-23T16:06:04;99231.63;;;5.44;100.00
25722;BME280;13578;53.450;15.496;2023-02-23T16:09:19;99232.88;;;5.51;100.00
25722;BME280;13578;53.450;15.496;2023-02-23T16:12:35;99235.09;;;5.46;100.00
25722;BME280;13578;53.450;15.496;2023-02-23T16:15:36;99238.09;;;5.43;100.00
25722;BME280;13578;53.450;15.496;2023-02-23T16:18:40;99227.91;;;5.34;100.00
25722;BME280;13578;53.450;15.496;2023-02-23T16:21:42;99235.66;;;5.27;100.00
25722;BME280;13578;53.450;15.496;2023-02-23T16:24:56;99239.47;;;5.24;100.00
25722;BME280;13578;53.450;15.496;2023-02-23T16:28:01;99238.03;;;5.32;100.00
25722;BME280;13578;53.450;15.496;2023-02-23T16:31:06;99231.09;;;5.28;100.00
25722;BME280;13578;53.450;15.496;2023-02-23T16:38:25;99219.47;;;5.25;100.00
25722;BME280;13578;53.450;15.496;2023-02-23T16:41:29;99213.63;;;5.19;100.00
25722;BME280;13578;53.450;15.496;2023-02-23T16:44:30;99214.25;;;5.22;100.00
25722;BME280;13578;53.450;15.496;2023-02-23T16:47:33;99207.31;;;5.18;100.00
25722;BME280;13578;53.450;15.496;2023-02-23T16:50:35;99209.41;;;5.15;100.00
25722;BME280;13578;53.450;15.496;2023-02-23T16:53:39;99207.66;;;5.14;100.00
25722;BME280;13578;53.450;15.496;2023-02-23T16:56:40;99207.44;;;5.17;100.00
25722;BME280;13578;53.450;15.496;2023-02-23T16:59:41;99202.22;;;5.14;100.00
25722;BME280;13578;53.450;15.496;2023-02-23T17:02:41;99202.22;;;5.14;100.00
25722;BME280;13578;53.450;15.496;2023-02-23T17:05:42;99202.00;;;5.17;100.00
25722;BME280;13578;53.450;15.496;2023-02-23T17:08:43;99206.44;;;5.18;100.00
25722;BME280;13578;53.450;15.496;2023-02-23T17:11:43;99208.78;;;5.11;100.00
25722;BME280;13578;53.450;15.496;2023-02-23T17:14:47;99212.00;;;5.16;100.00
25722;BME280;13578;53.450;15.496;2023-02-23T17:17:52;99210.16;;;5.17;100.00
25722;BME280;13578;53.450;15.496;2023-02-23T17:20:58;99211.97;;;5.05;100.00
25722;BME280;13578;53.450;15.496;2023-02-23T17:24:01;99198.59;;;5.02;100.00
25722;BME280;13578;53.450;15.496;2023-02-23T17:27:03;99202.84;;;5.06;100.00
25722;BME280;13578;53.450;15.496;2023-02-23T17:30:07;99194.19;;;5.12;100.00
25722;BME280;13578;53.450;15.496;2023-02-23T17:33:10;99201.25;;;5.15;100.00
25722;BME280;13578;53.450;15.496;2023-02-23T17:36:14;99194.03;;;5.02;100.00
25722;BME280;13578;53.450;15.496;2023-02-23T17:39:16;99191.06;;;5.05;100.00
25722;BME280;13578;53.450;15.496;2023-02-23T17:42:27;99190.44;;;5.02;100.00
25722;BME280;13578;53.450;15.496;2023-02-23T17:45:39;99192.31;;;5.01;100.00
25722;BME280;13578;53.450;15.496;2023-02-23T17:48:40;99180.66;;;4.99;100.00
25722;BME280;13578;53.450;15.496;2023-02-23T17:51:44;99180.53;;;5.01;100.00
25722;BME280;13578;53.450;15.496;2023-02-23T17:54:46;99187.72;;;5.02;100.00
25722;BME280;13578;53.450;15.496;2023-02-23T17:57:51;99173.13;;;4.91;100.00
25722;BME280;13578;53.450;15.496;2023-02-23T18:00:58;99167.53;;;4.93;100.00
25722;BME280;13578;53.450;15.496;2023-02-23T18:04:07;99158.63;;;4.91;100.00
25722;BME280;13578;53.450;15.496;2023-02-23T18:07:08;99165.94;;;4.90;100.00
25722;BME280;13578;53.450;15.496;2023-02-23T18:10:12;99155.53;;;4.84;100.00
25722;BME280;13578;53.450;15.496;2023-02-23T18:13:16;99161.00;;;4.96;100.00